sensor_id;sensor_type;location;lat;lon;timestamp;temperature;humidity
3818;DHT22;1924;48.078;11.516;2023-06-22T04:02:38;19.10;99.90
3818;DHT22;1924;48.078;11.516;2023-06-22T04:05:05;19.50;99.90
3818;DHT22;1924;48.078;11.516;2023-06-22T04:07:32;19.50;99.90
3818;DHT22;1924;48.078;11.516;2023-06-22T04:09:58;19.80;99.90
3818;DHT22;1924;48.078;11.516;2023-06-22T04:12:25;19.90;99.90
3818;DHT22;1924;48.078;11.516;2023-06-22T04:14:52;19.90;99.90
3818;DHT22;1924;48.078;11.516;2023-06-22T04:17:18;19.70;99.90
3818;DHT22;1924;48.078;11.516;2023-06-22T04:19:46;19.70;99.90
3818;DHT22;1924;48.078;11.516;2023-06-22T04:22:13;19.60;99.90
3818;DHT22;1924;48.078;11.516;2023-06-22T04:24:40;19.50;99.90
3818;DHT22;1924;48.078;11.516;2023-06-22T04:27:06;19.50;99.90
3818;DHT22;1924;48.078;11.516;2023-06-22T04:29:33;19.60;99.90
3818;DHT22;1924;48.078;11.516;2023-06-22T04:32:00;19.80;99.90
3818;DHT22;1924;48.078;11.516;2023-06-22T04:34:28;19.80;99.90
3818;DHT22;1924;48.078;11.516;2023-06-22T04:36:56;19.90;99.90
3818;DHT22;1924;48.078;11.516;2023-06-22T04:39:23;19.90;99.90
3818;DHT22;1924;48.078;11.516;2023-06-22T04:41:52;20.00;99.90
3818;DHT22;1924;48.078;11.516;2023-06-22T04:44:20;20.00;99.90
3818;DHT22;1924;48.078;11.516;2023-06-22T04:46:50;20.20;99.90
3818;DHT22;1924;48.078;11.516;2023-06-22T04:49:21;20.20;99.90
3818;DHT22;1924;48.078;11.516;2023-06-22T04:51:48;20.10;99.90
3818;DHT22;1924;48.078;11.516;2023-06-22T04:54:18;19.90;99.90
3818;DHT22;1924;48.078;11.516;2023-06-22T04:56:45;19.70;99.90
3818;DHT22;1924;48.078;11.516;2023-06-22T04:59:12;19.80;99.90
3818;DHT22;1924;48.078;11.516;2023-06-22T05:01:39;19.80;99.90
3818;DHT22;1924;48.078;11.516;2023-06-22T05:04:06;20.00;99.90
3818;DHT22;1924;48.078;11.516;2023-06-22T05:06:33;20.20;99.90
3818;DHT22;1924;48.078;11.516;2023-06-22T05:08:59;20.60;99.90
3818;DHT22;1924;48.078;11.516;2023-06-22T05:11:28;20.60;99.90
3818;DHT22;1924;48.078;11.516;2023-06-22T05:13:55;20.60;99.90
3818;DHT22;1924;48.078;11.516;2023-06-22T05:16:22;20.60;99.90
3818;DHT22;1924;48.078;11.516;2023-06-22T05:18:53;20.80;99.90
3818;DHT22;1924;48.078;11.516;2023-06-22T05:21:22;20.80;99.90
3818;DHT22;1924;48.078;11.516;2023-06-22T05:23:50;20.70;99.90
3818;DHT22;1924;48.078;11.516;2023-06-22T05:26:17;21.00;99.90
3818;DHT22;1924;48.078;11.516;2023-06-22T05:28:45;21.00;99.90
3818;DHT22;1924;48.078;11.516;2023-06-22T05:31:12;21.20;99.90
3818;DHT22;1924;48.078;11.516;2023-06-22T05:33:40;21.20;99.90
3818;DHT22;1924;48.078;11.516;2023-06-22T05:36:07;21.20;99.90
3818;DHT22;1924;48.078;11.516;2023-06-22T05:38:33;21.30;99.90
3818;DHT22;1924;48.078;11.516;2023-06-22T05:41:00;21.30;99.90
3818;DHT22;1924;48.078;11.516;2023-06-22T05:43:27;21.40;99.90
3818;DHT22;1924;48.078;11.516;2023-06-22T05:45:55;21.70;99.90
3818;DHT22;1924;48.078;11.516;2023-06-22T05:48:22;21.90;99.90
3818;DHT22;1924;48.078;11.516;2023-06-22T05:50:49;22.00;99.90
3818;DHT22;1924;48.078;11.516;2023-06-22T05:53:16;22.10;99.90
3818;DHT22;1924;48.078;11.516;2023-06-22T05:55:42;22.30;99.90
3818;DHT22;1924;48.078;11.516;2023-06-22T05:58:09;22.60;99.90
3818;DHT22;1924;48.078;11.516;2023-06-22T06:00:36;22.40;99.90
3818;DHT22;1924;48.078;11.516;2023-06-22T06:03:04;22.60;99.90
3818;DHT22;1924;48.078;11.516;2023-06-22T06:05:31;22.80;99.90
3818;DHT22;1924;48.078;11.516;2023-06-22T06:07:58;23.10;99.90
3818;DHT22;1924;48.078;11.516;2023-06-22T06:10:24;23.50;99.90
3818;DHT22;1924;48.078;11.516;2023-06-22T06:12:52;23.50;99.70
3818;DHT22;1924;48.078;11.516;2023-06-22T06:15:18;23.30;99.90
3818;DHT22;1924;48.078;11.516;2023-06-22T06:17:46;23.00;99.90
3818;DHT22;1924;48.078;11.516;2023-06-22T06:20:14;23.00;99.90
3818;DHT22;1924;48.078;11.516;2023-06-22T06:22:41;22.90;99.90
3818;DHT22;1924;48.078;11.516;2023-06-22T06:25:09;23.20;99.90
3818;DHT22;1924;48.078;11.516;2023-06-22T06:27:42;23.60;99.80
3818;DHT22;1924;48.078;11.516;2023-06-22T06:30:09;23.40;99.50
3818;DHT22;1924;48.078;11.516;2023-06-22T06:32:36;23.40;99.50
3818;DHT22;1924;48.078;11.516;2023-06-22T06:35:04;23.60;98.90
3818;DHT22;1924;48.078;11.516;2023-06-22T06:37:34;23.40;99.00
3818;DHT22;1924;48.078;11.516;2023-06-22T06:40:01;23.60;99.40
3818;DHT22;1924;48.078;11.516;2023-06-22T06:42:29;23.80;98.70
3818;DHT22;1924;48.078;11.516;2023-06-22T06:44:55;24.00;98.60
3818;DHT22;1924;48.078;11.516;2023-06-22T06:47:22;24.20;98.20
3818;DHT22;1924;48.078;11.516;2023-06-22T06:49:49;24.10;97.30
3818;DHT22;1924;48.078;11.516;2023-06-22T06:52:15;24.30;98.10
3818;DHT22;1924;48.078;11.516;2023-06-22T06:54:43;24.70;97.40
3818;DHT22;1924;48.078;11.516;2023-06-22T06:57:10;24.80;97.10
3818;DHT22;1924;48.078;11.516;2023-06-22T06:59:39;24.60;96.80
3818;DHT22;1924;48.078;11.516;2023-06-22T07:02:05;24.90;97.20
3818;DHT22;1924;48.078;11.516;2023-06-22T07:04:32;24.90;96.70
3818;DHT22;1924;48.078;11.516;2023-06-22T07:07:00;24.90;96.10
3818;DHT22;1924;48.078;11.516;2023-06-22T07:09:27;24.80;95.90
3818;DHT22;1924;48.078;11.516;2023-06-22T07:11:55;24.80;96.40
3818;DHT22;1924;48.078;11.516;2023-06-22T07:14:22;24.90;95.60
3818;DHT22;1924;48.078;11.516;2023-06-22T07:16:49;25.30;96.50
3818;DHT22;1924;48.078;11.516;2023-06-22T07:19:15;25.90;96.00
3818;DHT22;1924;48.078;11.516;2023-06-22T07:21:44;26.00;94.40
3818;DHT22;1924;48.078;11.516;2023-06-22T07:24:11;26.00;94.10
3818;DHT22;1924;48.078;11.516;2023-06-22T07:26:38;26.20;94.10
3818;DHT22;1924;48.078;11.516;2023-06-22T07:29:06;26.20;93.80
3818;DHT22;1924;48.078;11.516;2023-06-22T07:31:34;26.30;92.80
3818;DHT22;1924;48.078;11.516;2023-06-22T07:34:00;26.00;93.40
3818;DHT22;1924;48.078;11.516;2023-06-22T07:36:28;26.20;93.80
3818;DHT22;1924;48.078;11.516;2023-06-22T07:38:55;26.60;94.00
3818;DHT22;1924;48.078;11.516;2023-06-22T07:41:22;26.90;92.60
3818;DHT22;1924;48.078;11.516;2023-06-22T07:43:49;27.00;92.00
3818;DHT22;1924;48.078;11.516;2023-06-22T07:46:18;26.60;91.10
3818;DHT22;1924;48.078;11.516;2023-06-22T07:48:44;26.30;91.20
3818;DHT22;1924;48.078;11.516;2023-06-22T07:51:13;26.50;91.30
3818;DHT22;1924;48.078;11.516;2023-06-22T07:53:40;26.70;90.70
3818;DHT22;1924;48.078;11.516;2023-06-22T07:56:07;26.90;91.10
3818;DHT22;1924;48.078;11.516;2023-06-22T07:58:33;27.10;91.00
3818;DHT22;1924;48.078;11.516;2023-06-22T08:01:01;27.00;90.70
3818;DHT22;1924;48.078;11.516;2023-06-22T08:03:30;26.70;90.90
3818;DHT22;1924;48.078;11.516;2023-06-22T08:05:56;26.70;91.10
3818;DHT22;1924;48.078;11.516;2023-06-22T08:08:23;26.80;90.90
3818;DHT22;1924;48.078;11.516;2023-06-22T08:10:50;26.90;90.50
3818;DHT22;1924;48.078;11.516;2023-06-22T08:13:17;27.10;90.70
3818;DHT22;1924;48.078;11.516;2023-06-22T08:15:44;27.10;90.10
3818;DHT22;1924;48.078;11.516;2023-06-22T08:18:11;27.20;89.10
3818;DHT22;1924;48.078;11.516;2023-06-22T08:20:39;27.10;89.40
3818;DHT22;1924;48.078;11.516;2023-06-22T08:23:06;27.20;89.70
3818;DHT22;1924;48.078;11.516;2023-06-22T08:25:33;27.50;89.90
3818;DHT22;1924;48.078;11.516;2023-06-22T08:28:00;27.60;88.70
3818;DHT22;1924;48.078;11.516;2023-06-22T08:30:26;27.50;89.40
3818;DHT22;1924;48.078;11.516;2023-06-22T08:32:53;27.60;87.50
3818;DHT22;1924;48.078;11.516;2023-06-22T08:35:21;27.30;88.30
3818;DHT22;1924;48.078;11.516;2023-06-22T08:37:49;27.30;89.10
3818;DHT22;1924;48.078;11.516;2023-06-22T08:40:18;27.30;88.50
3818;DHT22;1924;48.078;11.516;2023-06-22T08:42:46;27.30;86.70
3818;DHT22;1924;48.078;11.516;2023-06-22T08:45:13;27.40;86.10
3818;DHT22;1924;48.078;11.516;2023-06-22T08:47:40;27.40;86.20
3818;DHT22;1924;48.078;11.516;2023-06-22T08:50:08;27.30;86.60
3818;DHT22;1924;48.078;11.516;2023-06-22T08:52:39;27.50;86.30
3818;DHT22;1924;48.078;11.516;2023-06-22T08:55:09;27.50;84.10
3818;DHT22;1924;48.078;11.516;2023-06-22T08:57:36;27.60;84.70
3818;DHT22;1924;48.078;11.516;2023-06-22T09:00:06;27.80;83.80
3818;DHT22;1924;48.078;11.516;2023-06-22T09:02:40;27.70;83.30
3818;DHT22;1924;48.078;11.516;2023-06-22T09:05:08;27.70;83.50
3818;DHT22;1924;48.078;11.516;2023-06-22T09:07:35;27.80;82.40
3818;DHT22;1924;48.078;11.516;2023-06-22T09:10:01;27.80;82.00
3818;DHT22;1924;48.078;11.516;2023-06-22T09:12:31;27.80;82.30
3818;DHT22;1924;48.078;11.516;2023-06-22T09:14:58;27.90;81.30
3818;DHT22;1924;48.078;11.516;2023-06-22T09:17:26;27.80;81.90
3818;DHT22;1924;48.078;11.516;2023-06-22T09:19:53;27.80;83.50
3818;DHT22;1924;48.078;11.516;2023-06-22T09:22:20;28.10;84.60
3818;DHT22;1924;48.078;11.516;2023-06-22T09:24:47;28.40;81.20
3818;DHT22;1924;48.078;11.516;2023-06-22T09:27:13;28.50;81.00
3818;DHT22;1924;48.078;11.516;2023-06-22T09:29:42;28.70;83.90
3818;DHT22;1924;48.078;11.516;2023-06-22T09:32:09;28.80;82.70
3818;DHT22;1924;48.078;11.516;2023-06-22T09:34:35;28.80;79.50
3818;DHT22;1924;48.078;11.516;2023-06-22T09:37:05;28.90;80.70
3818;DHT22;1924;48.078;11.516;2023-06-22T09:39:32;28.90;78.50
3818;DHT22;1924;48.078;11.516;2023-06-22T09:41:59;29.00;79.20
3818;DHT22;1924;48.078;11.516;2023-06-22T09:44:26;29.20;79.20
3818;DHT22;1924;48.078;11.516;2023-06-22T09:46:54;29.30;79.90
3818;DHT22;1924;48.078;11.516;2023-06-22T09:49:21;29.30;78.80
3818;DHT22;1924;48.078;11.516;2023-06-22T09:51:47;29.40;79.00
3818;DHT22;1924;48.078;11.516;2023-06-22T09:54:16;29.50;74.70
3818;DHT22;1924;48.078;11.516;2023-06-22T09:56:43;29.60;75.20
3818;DHT22;1924;48.078;11.516;2023-06-22T09:59:09;29.70;75.50
3818;DHT22;1924;48.078;11.516;2023-06-22T10:01:36;29.60;75.10
3818;DHT22;1924;48.078;11.516;2023-06-22T10:04:05;29.90;75.70
3818;DHT22;1924;48.078;11.516;2023-06-22T10:06:31;29.90;73.90
3818;DHT22;1924;48.078;11.516;2023-06-22T10:08:58;30.00;73.30
3818;DHT22;1924;48.078;11.516;2023-06-22T10:11:25;30.20;72.10
3818;DHT22;1924;48.078;11.516;2023-06-22T10:13:55;30.30;71.80
3818;DHT22;1924;48.078;11.516;2023-06-22T10:16:24;30.30;70.80
3818;DHT22;1924;48.078;11.516;2023-06-22T10:18:52;30.50;72.00
3818;DHT22;1924;48.078;11.516;2023-06-22T10:21:20;30.60;74.10
3818;DHT22;1924;48.078;11.516;2023-06-22T10:23:47;30.80;71.40
3818;DHT22;1924;48.078;11.516;2023-06-22T10:26:13;31.00;70.70
3818;DHT22;1924;48.078;11.516;2023-06-22T10:28:42;31.00;69.90
3818;DHT22;1924;48.078;11.516;2023-06-22T10:31:09;31.00;70.10
3818;DHT22;1924;48.078;11.516;2023-06-22T10:33:35;31.10;69.20
3818;DHT22;1924;48.078;11.516;2023-06-22T10:36:02;31.10;67.40
3818;DHT22;1924;48.078;11.516;2023-06-22T10:38:30;31.00;67.40
3818;DHT22;1924;48.078;11.516;2023-06-22T10:40:57;31.30;67.80
3818;DHT22;1924;48.078;11.516;2023-06-22T10:43:24;31.40;67.50
3818;DHT22;1924;48.078;11.516;2023-06-22T10:45:51;31.60;66.00
3818;DHT22;1924;48.078;11.516;2023-06-22T10:48:17;31.80;67.00
3818;DHT22;1924;48.078;11.516;2023-06-22T10:50:44;32.00;65.50
3818;DHT22;1924;48.078;11.516;2023-06-22T10:53:12;31.90;64.80
3818;DHT22;1924;48.078;11.516;2023-06-22T10:55:40;32.00;64.00
3818;DHT22;1924;48.078;11.516;2023-06-22T10:58:07;32.10;64.00
3818;DHT22;1924;48.078;11.516;2023-06-22T11:00:34;32.30;63.50
3818;DHT22;1924;48.078;11.516;2023-06-22T11:03:01;32.40;65.50
3818;DHT22;1924;48.078;11.516;2023-06-22T11:05:27;32.20;62.50
3818;DHT22;1924;48.078;11.516;2023-06-22T11:07:54;32.00;62.70
3818;DHT22;1924;48.078;11.516;2023-06-22T11:10:23;31.80;63.90
3818;DHT22;1924;48.078;11.516;2023-06-22T11:12:52;31.70;65.10
3818;DHT22;1924;48.078;11.516;2023-06-22T11:15:21;31.60;67.60
3818;DHT22;1924;48.078;11.516;2023-06-22T11:17:47;31.70;62.70
3818;DHT22;1924;48.078;11.516;2023-06-22T11:20:14;31.80;64.70
3818;DHT22;1924;48.078;11.516;2023-06-22T11:22:43;31.70;64.40
3818;DHT22;1924;48.078;11.516;2023-06-22T11:25:11;31.70;66.70
3818;DHT22;1924;48.078;11.516;2023-06-22T11:27:38;31.70;68.50
3818;DHT22;1924;48.078;11.516;2023-06-22T11:30:07;32.00;68.10
3818;DHT22;1924;48.078;11.516;2023-06-22T11:32:37;32.20;66.10
3818;DHT22;1924;48.078;11.516;2023-06-22T11:35:04;32.10;66.00
3818;DHT22;1924;48.078;11.516;2023-06-22T11:37:31;32.10;66.10
3818;DHT22;1924;48.078;11.516;2023-06-22T11:39:58;32.10;66.00
3818;DHT22;1924;48.078;11.516;2023-06-22T11:42:25;32.00;66.70
3818;DHT22;1924;48.078;11.516;2023-06-22T11:44:52;32.00;64.80
3818;DHT22;1924;48.078;11.516;2023-06-22T11:47:20;32.20;65.30
3818;DHT22;1924;48.078;11.516;2023-06-22T11:49:46;32.30;64.00
3818;DHT22;1924;48.078;11.516;2023-06-22T11:52:13;32.40;65.20
3818;DHT22;1924;48.078;11.516;2023-06-22T11:54:40;32.40;64.10
3818;DHT22;1924;48.078;11.516;2023-06-22T11:57:07;32.30;64.00
3818;DHT22;1924;48.078;11.516;2023-06-22T11:59:33;32.40;64.90
3818;DHT22;1924;48.078;11.516;2023-06-22T12:02:00;32.50;65.50
3818;DHT22;1924;48.078;11.516;2023-06-22T12:04:28;32.40;63.00
3818;DHT22;1924;48.078;11.516;2023-06-22T12:06:55;32.20;64.50
3818;DHT22;1924;48.078;11.516;2023-06-22T12:09:22;32.10;64.30
3818;DHT22;1924;48.078;11.516;2023-06-22T12:11:48;32.10;64.30
3818;DHT22;1924;48.078;11.516;2023-06-22T12:14:15;32.00;64.20
3818;DHT22;1924;48.078;11.516;2023-06-22T12:16:42;32.30;64.50
3818;DHT22;1924;48.078;11.516;2023-06-22T12:19:09;32.60;63.80
3818;DHT22;1924;48.078;11.516;2023-06-22T12:21:38;32.70;63.90
3818;DHT22;1924;48.078;11.516;2023-06-22T12:24:06;32.90;63.90
3818;DHT22;1924;48.078;11.516;2023-06-22T12:26:32;33.10;63.80
3818;DHT22;1924;48.078;11.516;2023-06-22T12:28:59;33.20;62.50
3818;DHT22;1924;48.078;11.516;2023-06-22T12:31:26;33.30;63.00
3818;DHT22;1924;48.078;11.516;2023-06-22T12:33:52;33.00;62.60
3818;DHT22;1924;48.078;11.516;2023-06-22T12:36:19;32.80;62.20
3818;DHT22;1924;48.078;11.516;2023-06-22T12:38:47;32.80;63.50
3818;DHT22;1924;48.078;11.516;2023-06-22T12:41:14;32.70;62.90
3818;DHT22;1924;48.078;11.516;2023-06-22T12:43:40;32.60;63.80
3818;DHT22;1924;48.078;11.516;2023-06-22T12:46:07;32.50;62.20
3818;DHT22;1924;48.078;11.516;2023-06-22T12:48:34;32.50;63.20
3818;DHT22;1924;48.078;11.516;2023-06-22T12:51:07;32.50;64.90
3818;DHT22;1924;48.078;11.516;2023-06-22T12:53:33;32.60;64.00
3818;DHT22;1924;48.078;11.516;2023-06-22T12:56:01;32.70;64.30
3818;DHT22;1924;48.078;11.516;2023-06-22T12:58:28;32.60;64.60
3818;DHT22;1924;48.078;11.516;2023-06-22T13:00:55;32.50;64.40
3818;DHT22;1924;48.078;11.516;2023-06-22T13:03:21;32.50;66.00
3818;DHT22;1924;48.078;11.516;2023-06-22T13:05:50;32.70;65.10
3818;DHT22;1924;48.078;11.516;2023-06-22T13:08:17;32.90;64.80
3818;DHT22;1924;48.078;11.516;2023-06-22T13:10:43;32.80;66.30
3818;DHT22;1924;48.078;11.516;2023-06-22T13:13:11;33.00;66.60
3818;DHT22;1924;48.078;11.516;2023-06-22T13:15:38;33.10;67.00
3818;DHT22;1924;48.078;11.516;2023-06-22T13:18:05;33.10;66.30
3818;DHT22;1924;48.078;11.516;2023-06-22T13:20:32;33.20;67.50
3818;DHT22;1924;48.078;11.516;2023-06-22T13:22:58;33.20;65.70
3818;DHT22;1924;48.078;11.516;2023-06-22T13:25:25;33.30;65.00
3818;DHT22;1924;48.078;11.516;2023-06-22T13:27:52;33.20;65.60
3818;DHT22;1924;48.078;11.516;2023-06-22T13:30:20;33.10;65.60
3818;DHT22;1924;48.078;11.516;2023-06-22T13:32:47;33.00;65.60
3818;DHT22;1924;48.078;11.516;2023-06-22T13:35:13;33.10;66.50
3818;DHT22;1924;48.078;11.516;2023-06-22T13:37:40;33.20;67.30
3818;DHT22;1924;48.078;11.516;2023-06-22T13:40:08;33.20;67.40
3818;DHT22;1924;48.078;11.516;2023-06-22T13:42:35;33.10;66.30
3818;DHT22;1924;48.078;11.516;2023-06-22T13:45:02;33.10;68.00
3818;DHT22;1924;48.078;11.516;2023-06-22T13:47:30;33.30;66.60
3818;DHT22;1924;48.078;11.516;2023-06-22T13:49:57;33.20;66.50
3818;DHT22;1924;48.078;11.516;2023-06-22T13:52:24;33.20;66.30
3818;DHT22;1924;48.078;11.516;2023-06-22T13:54:50;33.20;65.60
3818;DHT22;1924;48.078;11.516;2023-06-22T13:57:17;33.10;65.90
3818;DHT22;1924;48.078;11.516;2023-06-22T13:59:44;33.10;66.60
3818;DHT22;1924;48.078;11.516;2023-06-22T14:02:10;33.10;66.80
3818;DHT22;1924;48.078;11.516;2023-06-22T14:04:38;33.20;66.40
3818;DHT22;1924;48.078;11.516;2023-06-22T14:07:05;33.10;67.00
3818;DHT22;1924;48.078;11.516;2023-06-22T14:09:32;33.10;68.00
3818;DHT22;1924;48.078;11.516;2023-06-22T14:12:03;33.10;67.50
3818;DHT22;1924;48.078;11.516;2023-06-22T14:14:29;33.00;67.00
3818;DHT22;1924;48.078;11.516;2023-06-22T14:16:56;33.00;67.60
3818;DHT22;1924;48.078;11.516;2023-06-22T14:19:23;32.90;66.90
3818;DHT22;1924;48.078;11.516;2023-06-22T14:21:51;32.90;67.40
3818;DHT22;1924;48.078;11.516;2023-06-22T14:24:18;32.90;67.00
3818;DHT22;1924;48.078;11.516;2023-06-22T14:26:44;32.80;67.20
3818;DHT22;1924;48.078;11.516;2023-06-22T14:29:11;32.80;67.10
3818;DHT22;1924;48.078;11.516;2023-06-22T14:31:38;32.70;66.40
3818;DHT22;1924;48.078;11.516;2023-06-22T14:34:04;32.60;67.00
3818;DHT22;1924;48.078;11.516;2023-06-22T14:36:31;32.50;67.80
3818;DHT22;1924;48.078;11.516;2023-06-22T14:38:59;32.50;67.50
3818;DHT22;1924;48.078;11.516;2023-06-22T14:41:26;32.50;67.90
3818;DHT22;1924;48.078;11.516;2023-06-22T14:43:53;32.50;67.20
3818;DHT22;1924;48.078;11.516;2023-06-22T14:46:20;32.50;68.00
3818;DHT22;1924;48.078;11.516;2023-06-22T14:48:46;32.50;66.90
3818;DHT22;1924;48.078;11.516;2023-06-22T14:51:14;32.50;66.10
3818;DHT22;1924;48.078;11.516;2023-06-22T14:53:41;32.50;66.90
3818;DHT22;1924;48.078;11.516;2023-06-22T14:56:10;32.50;66.30
3818;DHT22;1924;48.078;11.516;2023-06-22T14:58:39;32.50;65.30
3818;DHT22;1924;48.078;11.516;2023-06-22T15:01:06;32.40;65.50
3818;DHT22;1924;48.078;11.516;2023-06-22T15:03:34;32.30;66.20
3818;DHT22;1924;48.078;11.516;2023-06-22T15:06:01;32.30;66.00
3818;DHT22;1924;48.078;11.516;2023-06-22T15:08:28;32.30;64.80
3818;DHT22;1924;48.078;11.516;2023-06-22T15:10:58;32.40;64.70
3818;DHT22;1924;48.078;11.516;2023-06-22T15:13:30;32.30;64.10
3818;DHT22;1924;48.078;11.516;2023-06-22T15:15:59;32.20;64.60
3818;DHT22;1924;48.078;11.516;2023-06-22T15:18:26;32.10;64.80
3818;DHT22;1924;48.078;11.516;2023-06-22T15:20:53;32.10;65.10
3818;DHT22;1924;48.078;11.516;2023-06-22T15:23:20;32.00;64.10
3818;DHT22;1924;48.078;11.516;2023-06-22T15:25:46;32.00;65.10
3818;DHT22;1924;48.078;11.516;2023-06-22T15:28:13;32.00;64.80
3818;DHT22;1924;48.078;11.516;2023-06-22T15:30:41;32.00;64.20
3818;DHT22;1924;48.078;11.516;2023-06-22T15:33:08;31.90;63.80
3818;DHT22;1924;48.078;11.516;2023-06-22T15:35:35;31.90;63.70
3818;DHT22;1924;48.078;11.516;2023-06-22T15:38:01;31.90;63.80
3818;DHT22;1924;48.078;11.516;2023-06-22T15:40:28;32.00;64.30
3818;DHT22;1924;48.078;11.516;2023-06-22T15:42:55;32.00;64.00
3818;DHT22;1924;48.078;11.516;2023-06-22T15:45:22;32.00;63.40
3818;DHT22;1924;48.078;11.516;2023-06-22T15:47:50;32.00;64.40
3818;DHT22;1924;48.078;11.516;2023-06-22T15:50:16;32.00;63.40
3818;DHT22;1924;48.078;11.516;2023-06-22T15:52:43;31.90;61.90
3818;DHT22;1924;48.078;11.516;2023-06-22T15:55:13;31.90;61.60
3818;DHT22;1924;48.078;11.516;2023-06-22T15:57:40;31.80;61.40
3818;DHT22;1924;48.078;11.516;2023-06-22T16:00:13;31.80;62.30
3818;DHT22;1924;48.078;11.516;2023-06-22T16:02:40;31.70;62.30
3818;DHT22;1924;48.078;11.516;2023-06-22T16:05:08;31.80;61.40
3818;DHT22;1924;48.078;11.516;2023-06-22T16:07:36;31.70;62.00
3818;DHT22;1924;48.078;11.516;2023-06-22T16:10:03;31.80;62.40
3818;DHT22;1924;48.078;11.516;2023-06-22T16:12:29;31.80;61.50
3818;DHT22;1924;48.078;11.516;2023-06-22T16:14:56;31.70;61.70
3818;DHT22;1924;48.078;11.516;2023-06-22T16:17:23;31.70;61.50
3818;DHT22;1924;48.078;11.516;2023-06-22T16:19:52;31.80;61.40
3818;DHT22;1924;48.078;11.516;2023-06-22T16:22:21;31.80;61.30
3818;DHT22;1924;48.078;11.516;2023-06-22T16:24:47;31.60;62.40
3818;DHT22;1924;48.078;11.516;2023-06-22T16:27:14;31.60;61.80
3818;DHT22;1924;48.078;11.516;2023-06-22T16:29:41;31.60;62.30
3818;DHT22;1924;48.078;11.516;2023-06-22T16:32:08;31.60;62.40
3818;DHT22;1924;48.078;11.516;2023-06-22T16:34:35;31.50;62.00
3818;DHT22;1924;48.078;11.516;2023-06-22T16:37:02;31.30;61.30
3818;DHT22;1924;48.078;11.516;2023-06-22T16:39:30;31.30;62.10
3818;DHT22;1924;48.078;11.516;2023-06-22T16:41:56;31.20;61.60
3818;DHT22;1924;48.078;11.516;2023-06-22T16:44:23;31.10;61.70
3818;DHT22;1924;48.078;11.516;2023-06-22T16:46:50;31.00;61.80
3818;DHT22;1924;48.078;11.516;2023-06-22T16:49:16;30.90;61.90
3818;DHT22;1924;48.078;11.516;2023-06-22T16:51:43;30.80;62.00
3818;DHT22;1924;48.078;11.516;2023-06-22T16:54:10;30.80;62.70
3818;DHT22;1924;48.078;11.516;2023-06-22T16:56:38;30.70;62.50
3818;DHT22;1924;48.078;11.516;2023-06-22T16:59:05;30.60;62.90
3818;DHT22;1924;48.078;11.516;2023-06-22T17:01:33;30.50;64.30
3818;DHT22;1924;48.078;11.516;2023-06-22T17:04:04;30.40;78.90
3818;DHT22;1924;48.078;11.516;2023-06-22T17:06:31;30.00;89.90
3818;DHT22;1924;48.078;11.516;2023-06-22T17:08:59;29.30;90.20
3818;DHT22;1924;48.078;11.516;2023-06-22T17:11:27;28.50;91.00
3818;DHT22;1924;48.078;11.516;2023-06-22T17:13:56;27.50;92.40
3818;DHT22;1924;48.078;11.516;2023-06-22T17:16:24;26.90;95.20
3818;DHT22;1924;48.078;11.516;2023-06-22T17:18:52;26.70;97.40
3818;DHT22;1924;48.078;11.516;2023-06-22T17:21:21;26.50;98.50
3818;DHT22;1924;48.078;11.516;2023-06-22T17:23:48;26.40;99.00
3818;DHT22;1924;48.078;11.516;2023-06-22T17:26:16;26.20;98.50
3818;DHT22;1924;48.078;11.516;2023-06-22T17:28:46;25.90;98.70
3818;DHT22;1924;48.078;11.516;2023-06-22T17:31:14;25.50;99.90
3818;DHT22;1924;48.078;11.516;2023-06-22T17:33:41;25.20;99.90
3818;DHT22;1924;48.078;11.516;2023-06-22T17:36:11;24.90;99.90
3818;DHT22;1924;48.078;11.516;2023-06-22T17:38:38;24.50;99.90
3818;DHT22;1924;48.078;11.516;2023-06-22T17:41:05;24.40;99.90
3818;DHT22;1924;48.078;11.516;2023-06-22T17:43:32;23.80;99.90
3818;DHT22;1924;48.078;11.516;2023-06-22T17:45:59;23.40;99.90
3818;DHT22;1924;48.078;11.516;2023-06-22T17:48:29;23.40;99.90
3818;DHT22;1924;48.078;11.516;2023-06-22T17:50:57;23.80;99.90
3818;DHT22;1924;48.078;11.516;2023-06-22T17:53:26;23.90;99.90
3818;DHT22;1924;48.078;11.516;2023-06-22T17:55:53;23.60;99.90
3818;DHT22;1924;48.078;11.516;2023-06-22T17:58:20;23.50;99.90
3818;DHT22;1924;48.078;11.516;2023-06-22T18:00:47;23.30;99.90
3818;DHT22;1924;48.078;11.516;2023-06-22T18:03:14;23.40;99.90
3818;DHT22;1924;48.078;11.516;2023-06-22T18:05:46;23.60;99.90
3818;DHT22;1924;48.078;11.516;2023-06-22T18:08:13;23.50;99.90
3818;DHT22;1924;48.078;11.516;2023-06-22T18:10:42;23.30;99.90
3818;DHT22;1924;48.078;11.516;2023-06-22T18:13:10;23.00;99.90
3818;DHT22;1924;48.078;11.516;2023-06-22T18:15:40;23.00;99.90
3818;DHT22;1924;48.078;11.516;2023-06-22T18:18:08;23.20;99.90
3818;DHT22;1924;48.078;11.516;2023-06-22T18:20:35;23.20;99.90
3818;DHT22;1924;48.078;11.516;2023-06-22T18:23:05;23.10;99.90
3818;DHT22;1924;48.078;11.516;2023-06-22T18:25:34;23.10;99.90
3818;DHT22;1924;48.078;11.516;2023-06-22T18:28:03;22.90;99.90
3818;DHT22;1924;48.078;11.516;2023-06-22T18:30:31;22.90;99.90
3818;DHT22;1924;48.078;11.516;2023-06-22T18:32:58;23.10;99.90
3818;DHT22;1924;48.078;11.516;2023-06-22T18:35:25;23.30;99.90
3818;DHT22;1924;48.078;11.516;2023-06-22T18:37:52;23.00;99.90
3818;DHT22;1924;48.078;11.516;2023-06-22T18:40:20;22.10;99.90
3818;DHT22;1924;48.078;11.516;2023-06-22T18:42:48;21.60;99.90
3818;DHT22;1924;48.078;11.516;2023-06-22T18:45:24;22.10;99.90
3818;DHT22;1924;48.078;11.516;2023-06-22T18:48:02;22.60;99.90
3818;DHT22;1924;48.078;11.516;2023-06-22T18:50:36;23.00;99.90
3818;DHT22;1924;48.078;11.516;2023-06-22T18:53:04;23.00;99.90
3818;DHT22;1924;48.078;11.516;2023-06-22T18:55:32;22.90;99.90
3818;DHT22;1924;48.078;11.516;2023-06-22T18:58:16;22.70;99.90
3818;DHT22;1924;48.078;11.516;2023-06-22T19:00:44;22.80;99.90
3818;DHT22;1924;48.078;11.516;2023-06-22T19:03:28;23.00;99.90
3818;DHT22;1924;48.078;11.516;2023-06-22T19:05:57;23.20;99.90
3818;DHT22;1924;48.078;11.516;2023-06-22T19:08:23;23.30;99.90
3818;DHT22;1924;48.078;11.516;2023-06-22T19:10:53;23.10;99.90
3818;DHT22;1924;48.078;11.516;2023-06-22T19:13:45;22.90;99.90
3818;DHT22;1924;48.078;11.516;2023-06-22T19:16:13;22.70;99.90
3818;DHT22;1924;48.078;11.516;2023-06-22T19:18:40;22.90;99.90
3818;DHT22;1924;48.078;11.516;2023-06-22T19:21:09;23.00;99.90
3818;DHT22;1924;48.078;11.516;2023-06-22T19:23:37;23.10;99.90
3818;DHT22;1924;48.078;11.516;2023-06-22T19:26:07;23.10;99.90
3818;DHT22;1924;48.078;11.516;2023-06-22T19:28:34;23.10;99.90
3818;DHT22;1924;48.078;11.516;2023-06-22T19:31:10;23.00;99.90
3818;DHT22;1924;48.078;11.516;2023-06-22T19:33:38;23.00;99.90
3818;DHT22;1924;48.078;11.516;2023-06-22T19:36:05;22.90;99.90
3818;DHT22;1924;48.078;11.516;2023-06-22T19:38:32;22.90;99.90
3818;DHT22;1924;48.078;11.516;2023-06-22T19:40:59;22.80;99.90
3818;DHT22;1924;48.078;11.516;2023-06-22T19:43:28;22.80;99.90
3818;DHT22;1924;48.078;11.516;2023-06-22T19:45:56;22.80;99.90
3818;DHT22;1924;48.078;11.516;2023-06-22T19:48:24;22.80;99.90